Gordon Heights, New York
Current Conditions -  °F | °C
As of 5:56 AM on Sunday 23 Nov 2014 (Local Time) from KHWV Reporting Station
Scattered Clouds Scattered Clouds  
Wind Chill: 40°   Ceiling: Unl
Heat Index: 45°   Visibility: 10mi
Dew Point: 26°   Wind: 10mph
Humidity: 48%   Direction: 240°WSW
Pressure: 30.19"   Gusts: NA
Location:  40.8228°N, 72.9822°W
Report Text: KHWV 231056Z AUTO 24009KT 10SM SCT110 07/M03 A3019 RMK AO2 SLP223 T00721033 TSNO
Loading
Personal Weather Stations






























Interactive Weather Map New forecast layout! Learn more

10-Day Weather Forecast

Advertisements
Track Severe Weather on mobile